Time;durP1;ratioP1;P1;durP2;ratioP2;P2;SDS_P1;SDS_P2;PMS_P1;PMS_P2;Temp;Humidity;BMP_temperature;BMP_pressure;BME280_temperature;BME280_humidity;BME280_pressure;Samples;Min_cycle;Max_cycle;Signal;HPM_P1;HPM_P2
2022/08/30 00:02:19;;;;;;;18.13;12.15;;;;;;;17.86;100.00;93295.03;5089256;28;20451;-74
2022/08/30 00:04:46;;;;;;;14.70;11.18;;;;;;;17.82;100.00;93297.38;5089801;28;20512;-74
2022/08/30 00:07:14;;;;;;;16.25;11.35;;;;;;;17.81;100.00;93290.59;5090102;28;20051;-74
2022/08/30 00:09:41;;;;;;;14.80;11.68;;;;;;;17.77;100.00;93295.53;5082165;28;20392;-74
2022/08/30 00:12:08;;;;;;;15.38;12.13;;;;;;;17.66;100.00;93298.31;5090029;28;20126;-74
2022/08/30 00:14:35;;;;;;;15.65;11.57;;;;;;;17.65;100.00;93304.56;5089880;28;20083;-74
2022/08/30 00:17:02;;;;;;;16.35;12.55;;;;;;;17.60;100.00;93307.91;5089931;28;20040;-74
2022/08/30 00:19:29;;;;;;;13.13;11.43;;;;;;;17.60;100.00;93300.13;5089456;28;20052;-74
2022/08/30 00:21:56;;;;;;;16.40;12.20;;;;;;;17.56;100.00;93312.81;5089644;28;20089;-74
2022/08/30 00:24:24;;;;;;;14.95;11.60;;;;;;;17.55;100.00;93308.63;5089535;28;20051;-74
2022/08/30 00:26:50;;;;;;;15.00;12.35;;;;;;;17.55;100.00;93308.63;5089432;28;20522;-74
2022/08/30 00:29:17;;;;;;;15.75;11.77;;;;;;;17.50;100.00;93313.84;5089922;28;20051;-74
2022/08/30 00:31:44;;;;;;;14.23;12.57;;;;;;;17.36;100.00;93284.91;5089689;28;20048;-75
2022/08/30 00:34:11;;;;;;;15.23;11.93;;;;;;;17.51;100.00;93320.59;5089399;28;20434;-75
2022/08/30 00:36:38;;;;;;;14.65;12.27;;;;;;;17.50;100.00;93311.22;5089437;28;20515;-74
2022/08/30 00:39:05;;;;;;;14.18;11.98;;;;;;;17.46;100.00;93318.72;5085493;28;20049;-75
2022/08/30 00:41:33;;;;;;;14.75;11.25;;;;;;;17.34;100.00;93308.53;5089613;28;20135;-74
2022/08/30 00:44:00;;;;;;;17.98;12.40;;;;;;;17.43;100.00;93323.63;5089534;28;20040;-74
2022/08/30 00:46:27;;;;;;;15.20;11.80;;;;;;;17.42;100.00;93316.88;5089021;28;20454;-74
2022/08/30 00:48:56;;;;;;;19.35;11.68;;;;;;;17.40;100.00;93316.34;5089215;28;20040;-74
2022/08/30 00:51:27;;;;;;;13.57;11.63;;;;;;;17.26;100.00;93297.81;5089375;28;20059;-74
2022/08/30 00:53:56;;;;;;;12.65;11.23;;;;;;;17.33;100.00;93313.97;5086837;28;20144;-74
2022/08/30 00:56:24;;;;;;;15.95;11.15;;;;;;;17.36;100.00;93310.88;5088717;28;20048;-74
2022/08/30 00:58:57;;;;;;;16.10;12.02;;;;;;;17.27;100.00;93302.75;5086437;28;20504;-74
2022/08/30 01:01:25;;;;;;;13.85;11.35;;;;;;;17.32;100.00;93312.41;5089262;28;20044;-74
2022/08/30 01:03:52;;;;;;;14.45;10.85;;;;;;;17.31;100.00;93306.41;5086821;28;20089;-74
2022/08/30 01:06:19;;;;;;;12.68;11.18;;;;;;;17.28;100.00;93306.94;5089001;28;20400;-74
2022/08/30 01:08:47;;;;;;;14.55;10.57;;;;;;;17.33;100.00;93306.97;5089027;28;20063;-74
2022/08/30 01:11:17;;;;;;;18.35;12.85;;;;;;;17.30;100.00;93304.06;5089225;28;20048;-74
2022/08/30 01:13:45;;;;;;;17.40;12.43;;;;;;;17.31;100.00;93305.66;5089216;28;20055;-74
2022/08/30 01:16:14;;;;;;;16.85;12.35;;;;;;;17.32;100.00;93313.16;5086643;28;20139;-74
2022/08/30 01:18:41;;;;;;;16.35;12.93;;;;;;;17.35;100.00;93320.47;5088754;28;20048;-74
2022/08/30 01:21:16;;;;;;;15.85;12.13;;;;;;;17.31;100.00;93309.00;5088676;28;20048;-73
2022/08/30 01:23:46;;;;;;;15.90;12.13;;;;;;;17.22;100.00;93292.34;5089111;28;20109;-73
2022/08/30 01:26:14;;;;;;;13.68;12.23;;;;;;;17.31;100.00;93303.81;5086674;28;20055;-74
2022/08/30 01:28:41;;;;;;;15.95;12.00;;;;;;;17.29;100.00;93303.28;5089065;28;20056;-74
2022/08/30 01:31:08;;;;;;;17.77;12.50;;;;;;;17.26;100.00;93310.81;5088754;28;20044;-74
2022/08/30 01:33:37;;;;;;;19.25;13.10;;;;;;;17.29;100.00;93300.69;5088460;28;20481;-73
2022/08/30 01:36:09;;;;;;;14.55;11.52;;;;;;;16.55;100.00;93181.03;5088764;28;20139;-73
2022/08/30 01:38:39;;;;;;;16.38;13.32;;;;;;;17.26;100.00;93290.03;5086719;28;20048;-73
2022/08/30 01:41:12;;;;;;;16.73;13.13;;;;;;;17.31;100.00;93293.44;5088845;28;20447;-73
2022/08/30 01:43:39;;;;;;;15.45;12.32;;;;;;;17.31;100.00;93284.88;5088623;28;20048;-73
2022/08/30 01:46:06;;;;;;;16.67;13.70;;;;;;;17.34;100.00;93290.34;5088507;28;20052;-73
2022/08/30 01:48:34;;;;;;;19.90;12.63;;;;;;;17.30;100.00;93289.28;5088668;28;20400;-73
2022/08/30 01:51:01;;;;;;;15.23;12.55;;;;;;;17.29;100.00;93290.31;5088914;28;20055;-74
2022/08/30 01:53:27;;;;;;;15.07;12.07;;;;;;;17.33;100.00;93291.38;5088805;28;20048;-74
2022/08/30 01:55:54;;;;;;;16.27;12.60;;;;;;;17.34;100.00;93290.34;5088581;28;20052;-74
2022/08/30 01:58:23;;;;;;;16.50;12.20;;;;;;;17.38;100.00;93290.63;5088676;28;20142;-74
2022/08/30 02:00:50;;;;;;;17.27;12.82;;;;;;;17.44;100.00;93286.25;5088709;28;20113;-74
2022/08/30 02:03:18;;;;;;;17.83;12.73;;;;;;;17.44;100.00;93284.44;5088420;28;20549;-74
2022/08/30 02:05:45;;;;;;;16.65;12.27;;;;;;;17.42;100.00;93273.53;5088603;28;20048;-74
2022/08/30 02:08:12;;;;;;;17.10;12.05;;;;;;;17.40;100.00;93272.97;5092310;28;20121;-74
2022/08/30 02:10:38;;;;;;;15.18;12.40;;;;;;;17.31;100.00;93274.50;5092077;28;20539;-74
2022/08/30 02:13:05;;;;;;;19.33;12.25;;;;;;;17.40;100.00;93280.75;5092040;28;20891;-74
2022/08/30 02:15:34;;;;;;;16.13;12.77;;;;;;;17.35;100.00;93276.34;5092303;28;20066;-74
2022/08/30 02:18:00;;;;;;;17.38;13.07;;;;;;;17.39;100.00;93281.81;5091895;28;20084;-75
2022/08/30 02:20:27;;;;;;;17.10;12.15;;;;;;;17.43;100.00;93276.88;5092195;28;20446;-74
2022/08/30 02:22:54;;;;;;;14.82;11.43;;;;;;;17.46;100.00;93269.38;5092179;28;20105;-73
2022/08/30 02:25:22;;;;;;;15.95;12.32;;;;;;;17.46;100.00;93271.22;5092001;28;20098;-73
2022/08/30 02:27:48;;;;;;;17.08;12.98;;;;;;;17.43;100.00;93264.69;5091844;28;20044;-74
2022/08/30 02:30:15;;;;;;;17.20;13.00;;;;;;;17.40;100.00;93260.00;5091761;28;20488;-74
2022/08/30 02:32:43;;;;;;;15.98;12.85;;;;;;;17.52;100.00;93279.78;5091581;28;20043;-74
2022/08/30 02:35:10;;;;;;;25.50;12.90;;;;;;;17.51;100.00;93273.84;5089120;28;20056;-74
2022/08/30 02:37:37;;;;;;;17.92;12.90;;;;;;;17.53;100.00;93268.41;5091771;28;20101;-74
2022/08/30 02:40:06;;;;;;;17.85;13.45;;;;;;;17.48;100.00;93261.34;5091638;28;20047;-74
2022/08/30 02:42:34;;;;;;;17.15;13.20;;;;;;;17.54;100.00;93275.16;5089128;28;20125;-74
2022/08/30 02:45:00;;;;;;;16.05;12.63;;;;;;;17.49;100.00;93260.31;5091514;28;20048;-74
2022/08/30 02:47:27;;;;;;;20.67;14.20;;;;;;;17.56;100.00;93267.88;5091492;28;20044;-73
2022/08/30 02:49:56;;;;;;;17.42;12.90;;;;;;;17.55;100.00;93269.69;5091771;28;20048;-73
2022/08/30 02:52:22;;;;;;;18.02;13.02;;;;;;;17.58;100.00;93268.41;5091308;28;20491;-73
2022/08/30 02:54:50;;;;;;;16.88;14.18;;;;;;;17.59;100.00;93267.38;5091152;28;20136;-73
2022/08/30 02:57:17;;;;;;;17.08;13.32;;;;;;;17.55;100.00;93271.50;5090364;28;20059;-74
2022/08/30 02:59:44;;;;;;;15.98;13.48;;;;;;;17.56;100.00;93266.06;5090857;28;20055;-74
2022/08/30 03:02:12;;;;;;;17.40;13.05;;;;;;;17.60;100.00;93263.75;5091062;28;20056;-74
2022/08/30 03:04:39;;;;;;;17.50;12.82;;;;;;;17.61;100.00;93263.50;5090768;28;20062;-74
2022/08/30 03:07:08;;;;;;;18.75;13.82;;;;;;;17.56;100.00;93249.69;5091186;28;20056;-74
2022/08/30 03:09:34;;;;;;;18.67;14.55;;;;;;;17.52;100.00;93259.03;5091056;28;20491;-74
2022/08/30 03:12:03;;;;;;;18.65;14.00;;;;;;;17.54;100.00;93262.94;5091039;28;20503;-74
2022/08/30 03:14:30;;;;;;;15.80;13.63;;;;;;;17.58;100.00;93268.41;5091024;28;20097;-74
2022/08/30 03:16:57;;;;;;;24.55;14.80;;;;;;;17.54;100.00;93264.75;5090927;28;20127;-74
2022/08/30 03:19:25;;;;;;;17.13;13.98;;;;;;;17.50;100.00;93264.50;5090019;28;20040;-75
2022/08/30 03:21:52;;;;;;;20.05;15.18;;;;;;;17.29;100.00;93253.97;5090694;28;20591;-75
2022/08/30 03:24:21;;;;;;;20.48;13.80;;;;;;;17.27;100.00;93269.00;5090704;28;20499;-75
2022/08/30 03:26:47;;;;;;;16.52;13.90;;;;;;;17.21;100.00;93272.59;5090727;28;20044;-75
2022/08/30 03:29:15;;;;;;;19.35;14.70;;;;;;;17.23;100.00;93273.91;5090763;28;20040;-75
2022/08/30 03:31:41;;;;;;;16.77;13.68;;;;;;;17.26;100.00;93277.81;5090946;28;20048;-74
2022/08/30 03:34:09;;;;;;;18.20;13.48;;;;;;;17.21;100.00;93281.16;5090605;28;20052;-74
2022/08/30 03:36:36;;;;;;;19.20;13.80;;;;;;;17.10;100.00;93261.38;5090767;28;20430;-74
2022/08/30 03:39:04;;;;;;;23.15;14.43;;;;;;;17.18;100.00;93268.69;5090308;28;20048;-74
2022/08/30 03:41:32;;;;;;;18.98;14.05;;;;;;;17.11;100.00;93278.50;5090628;28;20048;-74
2022/08/30 03:46:44;;;;;;;18.30;14.60;;;;;;;17.09;100.00;93273.56;5090560;28;20121;-74
2022/08/30 03:49:11;;;;;;;19.38;14.15;;;;;;;17.16;100.00;93280.34;5090481;28;20048;-74
2022/08/30 03:51:37;;;;;;;17.88;13.23;;;;;;;17.21;100.00;93283.78;5090445;28;20533;-74
2022/08/30 03:54:04;;;;;;;21.02;12.60;;;;;;;17.14;100.00;93279.81;5090363;28;20048;-73
2022/08/30 03:56:32;;;;;;;19.98;13.60;;;;;;;17.25;100.00;93291.06;5090429;28;20330;-74
2022/08/30 03:58:59;;;;;;;18.05;13.73;;;;;;;17.23;100.00;93286.13;5090383;28;20063;-74
2022/08/30 04:01:26;;;;;;;14.73;12.93;;;;;;;17.28;100.00;93285.38;5090023;28;20044;-74
2022/08/30 04:03:53;;;;;;;19.88;14.18;;;;;;;17.30;100.00;93285.88;5090000;28;20074;-74
2022/08/30 04:06:19;;;;;;;18.23;12.82;;;;;;;17.31;100.00;93287.47;5089883;28;20040;-74
2022/08/30 04:08:46;;;;;;;19.50;13.48;;;;;;;17.29;100.00;93297.31;5090129;28;20052;-74
2022/08/30 04:11:14;;;;;;;22.27;14.80;;;;;;;17.29;100.00;93295.50;5089743;28;20059;-74
2022/08/30 04:13:42;;;;;;;19.27;15.15;;;;;;;17.26;100.00;93301.19;5090191;28;20423;-74
2022/08/30 04:16:10;;;;;;;20.20;14.68;;;;;;;17.25;100.00;93304.06;5089854;28;20113;-74
2022/08/30 04:18:37;;;;;;;20.08;14.13;;;;;;;17.21;100.00;93299.34;5089637;28;20052;-74
2022/08/30 04:21:04;;;;;;;20.45;14.43;;;;;;;17.18;100.00;93296.47;5089930;28;20052;-74
2022/08/30 04:23:31;;;;;;;23.67;16.10;;;;;;;17.18;100.00;93301.66;5089847;28;20036;-74
2022/08/30 04:25:58;;;;;;;21.17;15.65;;;;;;;17.17;100.00;93305.28;5089811;28;20048;-74
2022/08/30 04:28:25;;;;;;;23.77;15.10;;;;;;;17.19;100.00;93303.22;5090059;28;20400;-73
2022/08/30 04:30:53;;;;;;;24.77;16.58;;;;;;;17.25;100.00;93310.00;5089008;28;20097;-74
2022/08/30 04:33:21;;;;;;;21.63;15.65;;;;;;;17.31;100.00;93308.25;5089478;28;20093;-74
2022/08/30 04:35:49;;;;;;;20.17;13.98;;;;;;;17.34;100.00;93311.13;5089205;28;20487;-74
2022/08/30 04:38:17;;;;;;;25.00;16.58;;;;;;;17.36;100.00;93308.28;5089708;28;20047;-74
2022/08/30 04:40:47;;;;;;;28.83;17.38;;;;;;;17.44;100.00;93309.59;5089646;28;20055;-74
2022/08/30 04:43:15;;;;;;;27.80;16.20;;;;;;;17.36;100.00;93303.09;5089290;28;20419;-74
2022/08/30 04:45:42;;;;;;;22.95;15.80;;;;;;;17.39;100.00;93307.78;5089463;28;20044;-73
2022/08/30 04:48:10;;;;;;;20.25;15.20;;;;;;;17.44;100.00;93315.59;5089150;28;20523;-73
2022/08/30 04:50:37;;;;;;;20.77;13.75;;;;;;;17.49;100.00;93313.03;5089436;28;20048;-73
2022/08/30 04:53:04;;;;;;;22.92;15.77;;;;;;;17.53;100.00;93318.50;5089570;28;20047;-73
2022/08/30 04:55:31;;;;;;;24.15;16.33;;;;;;;17.54;100.00;93319.31;5089473;28;20097;-73
2022/08/30 04:57:59;;;;;;;25.10;15.65;;;;;;;17.56;100.00;93319.81;5089374;28;20046;-73
2022/08/30 05:00:26;;;;;;;24.65;16.30;;;;;;;17.60;100.00;93323.50;5089185;28;20056;-73
2022/08/30 05:02:53;;;;;;;29.40;16.05;;;;;;;17.57;100.00;93319.56;5089335;28;20051;-73
2022/08/30 05:05:40;;;;;;;24.20;15.70;;;;;;;17.50;100.00;93304.22;5089101;28;20051;-73
2022/08/30 05:08:08;;;;;;;25.67;16.73;;;;;;;17.68;100.00;93333.41;5089059;28;20381;-73
2022/08/30 05:10:37;;;;;;;21.88;15.75;;;;;;;17.70;100.00;93328.75;5089433;28;20442;-73
2022/08/30 05:13:03;;;;;;;26.35;15.77;;;;;;;17.67;100.00;93311.06;5089271;28;20109;-73
2022/08/30 05:15:30;;;;;;;30.10;15.65;;;;;;;17.74;100.00;93324.59;5089329;28;20105;-73
2022/08/30 05:17:57;;;;;;;21.63;14.95;;;;;;;17.76;100.00;93325.16;5088861;28;20040;-74
2022/08/30 05:20:25;;;;;;;20.15;13.90;;;;;;;17.84;100.00;93323.09;5088899;28;20113;-74
2022/08/30 05:22:52;;;;;;;19.25;14.10;;;;;;;17.85;100.00;93322.84;5089168;28;20094;-74
2022/08/30 05:25:21;;;;;;;20.75;14.20;;;;;;;17.81;100.00;93313.22;5088978;28;20097;-73
2022/08/30 05:27:48;;;;;;;23.42;14.65;;;;;;;17.89;100.00;93331.72;5088723;28;20496;-73
2022/08/30 05:30:17;;;;;;;20.48;14.23;;;;;;;17.92;100.00;93334.84;5089058;28;20458;-73
2022/08/30 05:32:44;;;;;;;21.75;13.95;;;;;;;17.96;100.00;93339.28;5089015;28;20044;-73
2022/08/30 05:35:12;;;;;;;19.45;14.40;;;;;;;17.92;100.00;93330.44;5089003;28;20113;-73
2022/08/30 05:37:41;;;;;;;23.08;15.13;;;;;;;17.96;100.00;93335.91;5089045;28;20098;-73
2022/08/30 05:40:09;;;;;;;24.85;14.30;;;;;;;17.99;100.00;93335.38;5088482;28;20542;-73
2022/08/30 05:42:36;;;;;;;21.45;15.40;;;;;;;17.99;100.00;93335.38;5091787;28;20040;-73
2022/08/30 05:45:04;;;;;;;27.85;18.15;;;;;;;18.01;100.00;93334.09;5092698;28;20052;-73
2022/08/30 05:47:31;;;;;;;24.88;16.63;;;;;;;18.09;100.00;93337.31;5093103;28;20102;-73
2022/08/30 05:49:58;;;;;;;23.55;16.33;;;;;;;18.13;100.00;93335.75;5092815;28;20059;-73
2022/08/30 05:52:25;;;;;;;25.92;17.25;;;;;;;18.14;100.00;93327.69;5092516;28;20048;-73
2022/08/30 05:54:55;;;;;;;26.40;18.50;;;;;;;18.10;100.00;93321.44;5092840;28;20385;-73
2022/08/30 05:57:22;;;;;;;29.98;18.00;;;;;;;18.10;100.00;93316.22;5092790;28;20044;-73
2022/08/30 05:59:49;;;;;;;27.35;17.70;;;;;;;18.12;100.00;93331.56;5092102;28;20553;-73
2022/08/30 06:02:16;;;;;;;29.88;20.10;;;;;;;18.04;100.00;93332.81;5092414;28;20052;-73
2022/08/30 06:04:42;;;;;;;29.42;19.80;;;;;;;18.12;100.00;93323.78;5092500;28;20040;-73
2022/08/30 06:07:09;;;;;;;31.13;18.33;;;;;;;18.21;100.00;93330.06;5092479;28;20117;-73
2022/08/30 06:09:36;;;;;;;27.10;17.80;;;;;;;18.26;100.00;93335.28;5092477;28;20047;-73
2022/08/30 06:12:04;;;;;;;26.88;17.23;;;;;;;18.39;100.00;93338.44;5088043;28;20094;-73
2022/08/30 06:14:31;;;;;;;23.92;16.08;;;;;;;18.33;100.00;93331.66;5089920;28;20051;-73
2022/08/30 06:16:58;;;;;;;23.88;15.88;;;;;;;18.52;100.00;93339.78;5092406;28;20040;-73
2022/08/30 06:19:25;;;;;;;23.50;16.05;;;;;;;18.61;100.00;93343.44;5092259;28;20047;-73
2022/08/30 06:21:52;;;;;;;26.45;16.05;;;;;;;18.72;100.00;93346.06;5092116;28;20044;-73
2022/08/30 06:24:19;;;;;;;21.20;14.48;;;;;;;18.76;100.00;93341.94;5092328;28;20052;-73
2022/08/30 06:26:47;;;;;;;23.08;14.80;;;;;;;18.85;100.00;93350.81;5091829;28;20495;-73
2022/08/30 06:29:19;;;;;;;22.15;14.30;;;;;;;18.87;100.00;93355.72;5091926;28;20040;-73
2022/08/30 06:31:46;;;;;;;21.08;14.50;;;;;;;18.95;100.00;93365.66;5091577;28;20059;-73
2022/08/30 06:34:15;;;;;;;23.20;14.88;;;;;;;18.98;100.00;93366.94;5091605;28;20055;-73
2022/08/30 06:36:42;;;;;;;25.15;14.93;;;;;;;19.01;100.00;93369.81;5092065;28;20446;-73
2022/08/30 06:39:09;;;;;;;20.85;14.95;;;;;;;19.02;100.00;93371.38;5086161;28;20051;-73
2022/08/30 06:41:38;;;;;;;23.77;15.00;;;;;;;19.06;100.00;93367.25;5090091;28;20048;-73
2022/08/30 06:44:06;;;;;;;21.05;15.52;;;;;;;19.10;100.00;93370.13;5088870;28;20864;-73
2022/08/30 06:46:36;;;;;;;26.20;15.95;;;;;;;19.16;100.00;93370.91;5089904;28;20557;-73
2022/08/30 06:49:05;;;;;;;27.42;15.93;;;;;;;19.11;100.00;93378.72;5091224;28;20450;-72
2022/08/30 06:51:34;;;;;;;24.60;15.48;;;;;;;19.09;100.00;93376.38;5091690;28;20056;-73
2022/08/30 06:54:01;;;;;;;24.35;15.65;;;;;;;19.15;100.00;93377.94;5076142;28;20148;-73
2022/08/30 06:56:28;;;;;;;21.75;15.68;;;;;;;19.25;100.00;93379.75;5076972;28;20063;-72
2022/08/30 06:58:55;;;;;;;24.20;17.17;;;;;;;19.25;100.00;93368.56;5091028;28;20047;-72
2022/08/30 07:01:25;;;;;;;23.83;15.73;;;;;;;19.31;100.00;93377.97;5091387;28;20044;-73
2022/08/30 07:03:54;;;;;;;24.98;15.88;;;;;;;19.40;100.00;93381.63;5091189;28;20044;-73
2022/08/30 07:06:22;;;;;;;27.42;17.20;;;;;;;19.35;100.00;93369.34;5091279;28;20048;-73
2022/08/30 07:08:49;;;;;;;23.85;16.88;;;;;;;19.42;100.00;93379.53;5091315;28;20048;-73
2022/08/30 07:11:25;;;;;;;26.75;15.93;;;;;;;19.48;100.00;93381.06;5091239;28;20135;-73
2022/08/30 07:13:52;;;;;;;25.88;15.70;;;;;;;19.53;100.00;93384.72;5091077;28;20051;-73
2022/08/30 07:16:19;;;;;;;24.70;16.85;;;;;;;19.61;100.00;93384.19;5090874;28;20530;-73
2022/08/30 07:18:53;;;;;;;25.75;16.27;;;;;;;19.67;100.00;93377.94;5090774;28;20561;-73
2022/08/30 07:21:25;;;;;;;24.73;15.90;;;;;;;19.72;100.00;93383.13;5091018;28;20408;-73
2022/08/30 07:23:53;;;;;;;24.40;16.70;;;;;;;19.71;100.00;93386.00;5091108;28;20447;-73
2022/08/30 07:26:22;;;;;;;27.73;16.92;;;;;;;19.83;100.00;93386.53;5090571;28;20051;-73
2022/08/30 07:28:49;;;;;;;22.95;16.15;;;;;;;19.89;100.00;93397.72;5090543;28;20496;-73
2022/08/30 07:31:18;;;;;;;23.23;15.95;;;;;;;19.87;100.00;93392.00;5090659;28;20485;-73
2022/08/30 07:33:45;;;;;;;23.65;15.40;;;;;;;19.92;100.00;93401.63;5090520;28;20060;-73
2022/08/30 07:36:12;;;;;;;24.20;16.20;;;;;;;19.72;100.00;93375.31;5090790;28;20052;-73
2022/08/30 07:38:41;;;;;;;25.23;15.57;;;;;;;19.88;100.00;93403.97;5090499;28;20048;-74
2022/08/30 07:41:08;;;;;;;27.10;16.88;;;;;;;19.77;100.00;93409.19;5090379;28;20047;-74
2022/08/30 07:43:35;;;;;;;27.80;16.85;;;;;;;19.69;100.00;93414.16;5090663;28;20108;-74
2022/08/30 07:46:04;;;;;;;20.70;15.50;;;;;;;19.54;100.00;93396.72;5090239;28;20054;-74
2022/08/30 07:48:31;;;;;;;26.15;16.70;;;;;;;19.51;100.00;93405.81;5090612;28;20048;-73
2022/08/30 07:50:58;;;;;;;24.45;15.85;;;;;;;19.34;100.00;93395.66;5090205;28;20487;-74
2022/08/30 07:53:25;;;;;;;22.38;15.32;;;;;;;18.79;100.00;93391.63;5090543;28;20044;-74
2022/08/30 07:55:54;;;;;;;26.15;17.15;;;;;;;18.95;100.00;93400.28;5090127;28;20048;-74
2022/08/30 07:58:21;;;;;;;24.95;20.05;;;;;;;18.93;100.00;93389.31;5090232;28;20093;-73
2022/08/30 08:00:48;;;;;;;21.17;17.23;;;;;;;18.60;100.00;93390.53;5090115;28;20094;-74
2022/08/30 08:03:15;;;;;;;21.92;16.85;;;;;;;18.54;100.00;93389.72;5090366;28;20052;-73
2022/08/30 08:05:44;;;;;;;21.33;16.05;;;;;;;18.59;100.00;93396.75;5089860;28;20080;-73
2022/08/30 08:08:12;;;;;;;18.58;14.77;;;;;;;18.60;100.00;93396.50;5090195;28;20048;-73
2022/08/30 08:10:41;;;;;;;16.48;13.68;;;;;;;18.34;100.00;93406.84;5089898;28;20056;-73
2022/08/30 08:13:09;;;;;;;16.67;14.02;;;;;;;18.06;100.00;93393.16;5089930;28;20089;-74
2022/08/30 08:15:36;;;;;;;20.33;15.73;;;;;;;17.68;100.00;93387.94;5089835;28;20048;-74
2022/08/30 08:18:03;;;;;;;43.00;26.67;;;;;;;17.56;100.00;93392.53;5089720;28;20052;-73
2022/08/30 08:20:34;;;;;;;21.48;16.58;;;;;;;17.45;100.00;93394.28;5089938;28;20048;-73
2022/08/30 08:23:01;;;;;;;32.58;22.40;;;;;;;17.42;100.00;93392.19;5089931;28;20056;-73
2022/08/30 08:25:28;;;;;;;30.30;21.00;;;;;;;17.54;100.00;93395.38;5089730;28;20454;-73
2022/08/30 08:27:55;;;;;;;27.80;20.30;;;;;;;17.72;100.00;93404.63;5089519;28;20097;-73
2022/08/30 08:30:24;;;;;;;27.00;18.33;;;;;;;17.93;100.00;93409.16;5089278;28;20087;-73
2022/08/30 08:32:51;;;;;;;31.50;22.90;;;;;;;17.95;100.00;93396.72;5089744;28;20116;-73
2022/08/30 08:35:18;;;;;;;23.13;18.73;;;;;;;17.67;100.00;93391.59;5089605;28;20056;-73
2022/08/30 08:37:45;;;;;;;35.63;20.98;;;;;;;17.72;100.00;93393.44;5089220;28;20510;-73
2022/08/30 08:40:15;;;;;;;30.25;19.48;;;;;;;17.77;100.00;93389.06;5089662;28;20129;-73
2022/08/30 08:42:57;;;;;;;25.88;18.55;;;;;;;17.99;100.00;93392.56;5089472;28;20454;-73
2022/08/30 08:45:36;;;;;;;26.23;19.30;;;;;;;18.18;100.00;93384.38;5088973;28;20089;-73
2022/08/30 08:48:08;;;;;;;27.58;19.20;;;;;;;18.32;100.00;93388.09;5088979;28;20048;-73
2022/08/30 08:50:36;;;;;;;28.67;19.15;;;;;;;18.43;100.00;93384.50;5087487;28;20044;-74
2022/08/30 08:55:54;;;;;;;28.60;19.70;;;;;;;18.49;100.00;93366.31;5089132;28;20088;-74
2022/08/30 08:58:24;;;;;;;27.33;19.98;;;;;;;18.55;100.00;93367.88;5088506;28;20044;-74
2022/08/30 09:00:53;;;;;;;28.35;20.60;;;;;;;18.71;100.00;93376.53;5087792;28;20055;-74
2022/08/30 09:03:22;;;;;;;24.98;18.52;;;;;;;18.89;100.00;93383.06;5087276;28;20052;-73
2022/08/30 09:05:50;;;;;;;23.92;17.92;;;;;;;18.99;100.00;93384.91;5087815;28;20059;-74
2022/08/30 09:08:19;;;;;;;23.35;16.95;;;;;;;19.14;100.00;93380.78;5086746;28;20048;-73
2022/08/30 09:11:00;;;;;;;19.60;16.63;;;;;;;19.30;100.00;93368.59;5089637;28;20048;-74
2022/08/30 09:13:28;;;;;;;20.80;16.77;;;;;;;19.41;100.00;93367.53;5089025;28;20097;-73
2022/08/30 09:15:58;;;;;;;22.05;16.20;;;;;;;19.58;100.00;93367.25;5083727;28;20044;-73
2022/08/30 09:18:43;;;;;;;22.88;16.33;;;;;;;19.90;100.00;93378.41;5085815;28;20044;-73
2022/08/30 09:21:10;;;;;;;21.85;15.30;;;;;;;20.05;100.00;93372.44;5090642;28;20067;-74
2022/08/30 09:23:46;;;;;;;21.15;14.60;;;;;;;20.17;100.00;93361.69;5088885;28;20076;-73
2022/08/30 09:26:13;;;;;;;21.25;14.60;;;;;;;20.49;100.00;93375.41;5090086;28;20123;-73
2022/08/30 09:28:47;;;;;;;21.92;15.02;;;;;;;20.65;100.00;93381.38;5088461;28;20136;-73
2022/08/30 09:31:21;;;;;;;18.60;14.13;;;;;;;20.96;100.00;93378.59;5082376;28;20048;-73
2022/08/30 09:33:54;;;;;;;19.52;13.98;;;;;;;21.20;100.00;93383.19;5091271;28;20103;-73
2022/08/30 09:36:26;;;;;;;17.67;13.23;;;;;;;21.46;100.00;93383.75;5074373;28;20067;-73
2022/08/30 09:39:02;;;;;;;17.40;13.27;;;;;;;21.58;100.00;93369.56;5087894;28;20044;-73
2022/08/30 09:41:38;;;;;;;18.65;12.68;;;;;;;21.40;100.00;93376.22;5092885;28;20052;-73
2022/08/30 09:44:09;;;;;;;18.05;12.60;;;;;;;21.31;100.00;93373.41;5092867;28;20054;-73
2022/08/30 09:46:45;;;;;;;19.13;12.98;;;;;;;21.59;100.00;93377.13;5082891;28;20089;-74
2022/08/30 09:49:31;;;;;;;18.48;14.05;;;;;;;21.49;100.00;93371.97;5092046;28;20055;-73
2022/08/30 09:52:09;;;;;;;17.77;14.18;;;;;;;21.67;100.00;93377.59;5081238;28;20105;-73
2022/08/30 09:54:41;;;;;;;18.17;13.18;;;;;;;21.79;100.00;93377.25;5091639;28;20046;-73
2022/08/30 09:57:22;;;;;;;21.05;13.95;;;;;;;21.88;100.00;93376.38;5092589;28;20044;-73
2022/08/30 09:59:53;;;;;;;19.52;13.90;;;;;;;21.87;100.00;93380.06;5092496;28;20052;-73
2022/08/30 10:02:37;;;;;;;22.00;13.88;;;;;;;21.99;100.00;93378.91;5092725;28;20101;-73
2022/08/30 10:05:14;;;;;;;22.60;13.90;;;;;;;22.02;100.00;93391.41;5092248;28;20044;-73
2022/08/30 10:07:49;;;;;;;20.30;13.73;;;;;;;22.13;100.00;93392.84;5092153;28;20493;-73
2022/08/30 10:10:24;;;;;;;16.15;12.80;;;;;;;22.24;100.00;93388.31;5092498;28;20052;-73
2022/08/30 10:13:03;;;;;;;18.20;11.88;;;;;;;22.35;100.00;93388.19;5092751;28;20043;-73
2022/08/30 10:15:34;;;;;;;19.55;12.20;;;;;;;22.42;100.00;93389.44;5091989;28;20488;-73
2022/08/30 10:18:11;;;;;;;26.25;14.85;;;;;;;22.56;100.00;93380.91;5091939;28;20094;-73
2022/08/30 10:20:47;;;;;;;17.83;12.80;;;;;;;22.66;100.00;93380.00;5090136;28;20059;-73
2022/08/30 10:23:19;;;;;;;13.75;11.18;;;;;;;22.72;100.00;93383.34;5086871;28;20413;-73
2022/08/30 10:25:50;;;;;;;17.35;12.30;;;;;;;22.81;100.00;93371.94;5086156;28;20135;-73
2022/08/30 10:28:22;;;;;;;20.63;11.82;;;;;;;23.09;100.00;93382.56;5088582;28;20127;-73
2022/08/30 10:30:57;;;;;;;17.38;11.90;;;;;;;23.04;100.00;93392.34;5089968;28;20044;-73
2022/08/30 10:33:30;;;;;;;14.43;11.60;;;;;;;22.96;100.00;93383.28;5091577;28;20491;-73
2022/08/30 10:36:00;;;;;;;17.20;10.90;;;;;;;23.21;100.00;93386.59;5091144;28;20102;-74
2022/08/30 10:38:32;;;;;;;14.95;10.40;;;;;;;23.02;100.00;93395.25;5089874;28;20515;-73
2022/08/30 10:41:16;;;;;;;14.57;11.38;;;;;;;22.83;100.00;93393.38;5090354;28;20043;-72
2022/08/30 10:43:53;;;;;;;16.40;11.57;;;;;;;23.08;100.00;93386.25;5089376;28;20085;-72
2022/08/30 10:46:27;;;;;;;16.35;11.60;;;;;;;23.06;100.00;93380.50;5092029;28;20101;-72
2022/08/30 10:48:58;;;;;;;18.42;11.40;;;;;;;23.57;100.00;93385.31;5090379;28;20051;-72
2022/08/30 10:51:31;;;;;;;14.38;11.43;;;;;;;23.92;100.00;93383.16;5090629;28;20469;-73
2022/08/30 10:54:06;;;;;;;21.45;12.82;;;;;;;24.16;100.00;93379.59;5091424;28;20047;-72
2022/08/30 10:56:38;;;;;;;15.98;12.40;;;;;;;24.42;100.00;93377.28;5091883;28;20044;-73
2022/08/30 10:59:07;;;;;;;17.98;12.48;;;;;;;24.33;100.00;93381.66;5090686;28;20420;-73
2022/08/30 11:02:00;;;;;;;15.15;12.63;;;;;;;23.99;100.00;93375.69;5089724;28;20098;-72
2022/08/30 11:04:53;;;;;;;18.75;12.00;;;;;;;24.18;100.00;93371.44;5089693;28;20188;-73
2022/08/30 11:07:34;;;;;;;17.02;11.30;;;;;;;24.39;100.00;93371.84;5087811;28;20407;-72
2022/08/30 11:10:23;;;;;;;15.10;11.80;;;;;;;24.58;100.00;93363.88;5088512;28;20404;-73
2022/08/30 11:12:58;;;;;;;15.43;11.70;;;;;;;24.78;100.00;93362.66;5088570;28;20051;-73
2022/08/30 11:15:30;;;;;;;22.30;11.88;;;;;;;24.95;100.00;93361.28;5089289;28;20385;-73
2022/08/30 11:18:02;;;;;;;17.13;11.05;;;;;;;25.06;100.00;93362.63;5090268;28;20040;-73
2022/08/30 11:20:39;;;;;;;23.92;15.50;;;;;;;25.00;100.00;93339.38;5090245;28;20044;-74
2022/08/30 11:23:21;;;;;;;23.90;13.57;;;;;;;25.24;100.00;93357.47;5089368;28;20381;-73
2022/08/30 11:25:50;;;;;;;19.10;12.15;;;;;;;25.29;100.00;93352.09;5090740;28;20519;-73